createdAt,value
2022-08-11T00:01:31.741Z,2.1
2022-08-11T00:03:57.832Z,2.1
2022-08-11T00:06:23.923Z,2
2022-08-11T00:08:50.006Z,2.2
2022-08-11T00:11:16.120Z,2.1
2022-08-11T00:13:42.212Z,2
2022-08-11T00:16:08.309Z,1.8
2022-08-11T00:18:34.399Z,1.6
2022-08-11T00:21:00.508Z,2.1
2022-08-11T00:23:26.587Z,1.9
2022-08-11T00:25:51.699Z,2.1
2022-08-11T00:28:17.803Z,2.1
2022-08-11T00:30:43.892Z,1.7
2022-08-11T00:33:09.990Z,1.8
2022-08-11T00:35:36.087Z,1.7
2022-08-11T00:38:02.192Z,1.9
2022-08-11T00:40:28.286Z,1.7
2022-08-11T00:42:53.403Z,1.9
2022-08-11T00:45:18.507Z,1.9
2022-08-11T00:47:44.608Z,1.6
2022-08-11T00:50:10.698Z,1.7
2022-08-11T00:52:36.797Z,1.9
2022-08-11T00:55:02.912Z,2
2022-08-11T00:57:28.993Z,1.9
2022-08-11T00:59:55.100Z,1.7
2022-08-11T01:02:21.241Z,2
2022-08-11T01:04:47.297Z,1.8
2022-08-11T01:07:13.386Z,1.8
2022-08-11T01:09:39.472Z,1.6
2022-08-11T01:12:05.571Z,1.9
2022-08-11T01:14:31.672Z,2
2022-08-11T01:16:56.785Z,2
2022-08-11T01:19:22.873Z,1.6
2022-08-11T01:21:48.981Z,1.7
2022-08-11T01:24:15.087Z,1.7
2022-08-11T01:26:41.158Z,1.6
2022-08-11T01:29:07.258Z,1.7
2022-08-11T01:31:33.354Z,1.8
2022-08-11T01:33:58.487Z,1.7
2022-08-11T01:36:23.577Z,1.9
2022-08-11T01:38:48.715Z,1.7
2022-08-11T01:41:13.806Z,1.6
2022-08-11T01:43:38.924Z,1.7
2022-08-11T01:46:04.062Z,1.7
2022-08-11T01:48:30.149Z,1.7
2022-08-11T01:53:22.327Z,1.5
2022-08-11T01:55:48.424Z,1.8
2022-08-11T01:58:14.531Z,1.7
2022-08-11T02:00:40.627Z,1.8
2022-08-11T02:03:06.721Z,1.7
2022-08-11T02:05:32.818Z,2
2022-08-11T02:07:58.913Z,1.5
2022-08-11T02:10:24.997Z,1.5
2022-08-11T02:12:51.091Z,1.8
2022-08-11T02:15:17.191Z,1.6
2022-08-11T02:17:42.313Z,1.8
2022-08-11T02:20:08.388Z,1.8
2022-08-11T02:22:34.494Z,1.9
2022-08-11T02:25:00.614Z,1.5
2022-08-11T02:27:26.679Z,1.7
2022-08-11T02:29:52.771Z,1.9
2022-08-11T02:32:18.880Z,1.7
2022-08-11T02:34:44.955Z,1.9
2022-08-11T02:37:10.094Z,1.7
2022-08-11T02:39:35.194Z,1.6
2022-08-11T02:42:01.287Z,1.9
2022-08-11T02:44:26.402Z,1.9
2022-08-11T02:46:51.518Z,1.9
2022-08-11T02:49:17.618Z,1.7
2022-08-11T02:51:43.718Z,1.5
2022-08-11T02:54:09.827Z,1.4
2022-08-11T02:56:35.901Z,2.1
2022-08-11T02:59:01.987Z,2
2022-08-11T03:01:28.099Z,1.7
2022-08-11T03:03:54.179Z,1.8
2022-08-11T03:06:20.283Z,1.6
2022-08-11T03:08:46.420Z,1.7
2022-08-11T03:11:12.470Z,1.9
2022-08-11T03:13:38.576Z,1.6
2022-08-11T03:16:04.663Z,2.1
2022-08-11T03:18:29.757Z,2.2
2022-08-11T03:20:55.858Z,1.8
2022-08-11T03:23:21.943Z,2.2
2022-08-11T03:25:48.043Z,2
2022-08-11T03:28:14.147Z,2.1
2022-08-11T03:30:40.255Z,1.7
2022-08-11T03:33:06.332Z,1.6
2022-08-11T03:35:31.456Z,1.9
2022-08-11T03:37:56.596Z,1.8
2022-08-11T03:40:22.666Z,2
2022-08-11T03:42:48.793Z,1.8
2022-08-11T03:45:14.882Z,2
2022-08-11T03:47:40.966Z,1.9
2022-08-11T03:50:07.056Z,1.7
2022-08-11T03:52:33.146Z,1.9
2022-08-11T03:54:59.237Z,1.9
2022-08-11T03:57:25.350Z,1.8
2022-08-11T03:59:51.424Z,1.7
2022-08-11T04:02:17.520Z,1.7
2022-08-11T04:04:43.627Z,2
2022-08-11T04:07:09.728Z,1.9
2022-08-11T04:09:34.850Z,2.1
2022-08-11T04:12:00.966Z,1.9
2022-08-11T04:14:27.021Z,2
2022-08-11T04:16:53.113Z,1.9
2022-08-11T04:19:19.218Z,2.5
2022-08-11T04:21:45.315Z,2.1
2022-08-11T04:24:11.397Z,1.7
2022-08-11T04:26:36.538Z,1.8
2022-08-11T04:29:01.630Z,2
2022-08-11T04:31:26.769Z,1.9
2022-08-11T04:33:51.876Z,2.1
2022-08-11T04:36:17.003Z,1.9
2022-08-11T04:38:42.112Z,1.8
2022-08-11T04:41:08.197Z,1.9
2022-08-11T04:43:34.315Z,2.1
2022-08-11T04:46:00.388Z,1.9
2022-08-11T04:48:26.494Z,1.8
2022-08-11T04:50:52.592Z,2
2022-08-11T04:53:18.692Z,1.9
2022-08-11T04:55:44.778Z,1.8
2022-08-11T04:58:10.873Z,2.2
2022-08-11T05:00:36.972Z,1.8
2022-08-11T05:03:03.074Z,1.9
2022-08-11T05:05:29.158Z,2.3
2022-08-11T05:07:55.256Z,2.2
2022-08-11T05:10:20.373Z,2.1
2022-08-11T05:12:46.471Z,2.2
2022-08-11T05:15:12.597Z,1.7
2022-08-11T05:17:38.658Z,2
2022-08-11T05:20:04.773Z,1.6
2022-08-11T05:22:30.850Z,1.6
2022-08-11T05:24:56.951Z,1.6
2022-08-11T05:27:22.087Z,2.2
2022-08-11T05:29:47.193Z,1.7
2022-08-11T05:32:13.272Z,2
2022-08-11T05:34:39.384Z,1.7
2022-08-11T05:37:05.470Z,1.9
2022-08-11T05:39:31.558Z,1.9
2022-08-11T05:41:57.651Z,1.5
2022-08-11T05:44:23.741Z,2.2
2022-08-11T05:46:49.850Z,0.1
2022-08-11T05:49:15.934Z,0.2
2022-08-11T05:51:42.046Z,0.4
2022-08-11T05:54:08.125Z,0.2
2022-08-11T05:56:34.218Z,0.6
2022-08-11T05:59:00.333Z,0.5
2022-08-11T06:01:25.434Z,0.3
2022-08-11T06:03:51.536Z,0.3
2022-08-11T06:06:17.616Z,2.2
2022-08-11T06:08:43.721Z,0.5
2022-08-11T06:11:09.822Z,0.3
2022-08-11T06:13:35.903Z,0.5
2022-08-11T06:16:01.999Z,0.7
2022-08-11T06:18:27.117Z,0.5
2022-08-11T06:20:52.238Z,0.4
2022-08-11T06:23:17.366Z,0.3
2022-08-11T06:25:42.463Z,0.3
2022-08-11T06:28:07.604Z,0.3
2022-08-11T06:30:32.714Z,0.8
2022-08-11T06:32:58.807Z,0.2
2022-08-11T06:35:24.896Z,0.8
2022-08-11T06:37:50.991Z,0.3
2022-08-11T06:40:17.080Z,0.7
2022-08-11T06:42:43.178Z,0.6
2022-08-11T06:45:09.259Z,0.4
2022-08-11T06:47:35.356Z,0.2
2022-08-11T06:50:01.470Z,0.1
2022-08-11T06:52:27.561Z,0.4
2022-08-11T06:54:53.662Z,0.7
2022-08-11T06:57:19.751Z,0.8
2022-08-11T06:59:45.845Z,0.2
2022-08-11T07:02:10.966Z,0.3
2022-08-11T07:04:37.093Z,0.3
2022-08-11T07:07:03.151Z,0.4
2022-08-11T07:09:29.236Z,0.1
2022-08-11T07:11:55.339Z,0.4
2022-08-11T07:16:47.525Z,0.3
2022-08-11T07:19:13.624Z,0.6
2022-08-11T07:21:38.752Z,0.7
2022-08-11T07:26:29.954Z,0.7
2022-08-11T07:28:55.073Z,0.8
2022-08-11T07:31:20.180Z,0.4
2022-08-11T07:33:46.273Z,0.4
2022-08-11T07:36:12.405Z,0.6
2022-08-11T07:38:38.468Z,0.8
2022-08-11T07:41:04.575Z,0.7
2022-08-11T07:43:30.661Z,0.7
2022-08-11T07:45:56.748Z,1.2
2022-08-11T07:48:22.855Z,0.8
2022-08-11T07:50:48.969Z,1.2
2022-08-11T07:53:15.052Z,1.2
2022-08-11T07:55:41.146Z,1.2
2022-08-11T07:58:07.225Z,0.9
2022-08-11T08:00:32.355Z,1.1
2022-08-11T08:02:57.475Z,1
2022-08-11T08:05:22.592Z,1.4
2022-08-11T08:07:47.707Z,1.2
2022-08-11T08:10:13.810Z,1
2022-08-11T08:12:39.888Z,1.3
2022-08-11T08:15:05.996Z,1
2022-08-11T08:17:32.086Z,1.4
2022-08-11T08:19:58.178Z,0.9
2022-08-11T08:22:24.270Z,1.2
2022-08-11T08:24:50.377Z,1
2022-08-11T08:27:16.472Z,1.3
2022-08-11T08:29:42.559Z,1.3
2022-08-11T08:32:08.666Z,1.2
2022-08-11T08:34:33.764Z,1.4
2022-08-11T08:36:59.883Z,1.1
2022-08-11T08:44:18.146Z,1.1
2022-08-11T08:46:43.270Z,1.3
2022-08-11T08:49:08.383Z,1.3
2022-08-11T08:51:34.500Z,1.6
2022-08-11T08:54:00.573Z,1.4
2022-08-11T08:56:26.678Z,1.2
2022-08-11T08:58:52.774Z,1.6
2022-08-11T09:01:18.940Z,1.2
2022-08-11T09:03:44.973Z,1.5
2022-08-11T09:06:11.067Z,1.1
2022-08-11T09:08:37.146Z,1.4
2022-08-11T09:11:03.245Z,1.4
2022-08-11T09:13:28.370Z,1.3
2022-08-11T09:15:53.472Z,1.4
2022-08-11T09:18:19.574Z,1
2022-08-11T09:20:45.670Z,1.1
2022-08-11T09:23:11.777Z,1.5
2022-08-11T09:25:37.863Z,1.5
2022-08-11T09:28:03.960Z,1.1
2022-08-11T09:30:30.065Z,1.3
2022-08-11T09:32:56.137Z,1.1
2022-08-11T09:35:22.233Z,1.3
2022-08-11T09:37:48.332Z,1.2
2022-08-11T09:40:14.417Z,1.5
2022-08-11T09:42:40.521Z,1.4
2022-08-11T09:45:06.630Z,1.5
2022-08-11T09:47:31.726Z,1.4
2022-08-11T09:49:57.811Z,1.1
2022-08-11T09:52:23.917Z,1.1
2022-08-11T09:54:50.001Z,1.3
2022-08-11T09:57:16.096Z,1.5
2022-08-11T09:59:42.223Z,1.3
2022-08-11T10:02:08.284Z,1.3
2022-08-11T10:04:33.413Z,1.3
2022-08-11T10:06:59.506Z,1
2022-08-11T10:09:24.620Z,1.1
2022-08-11T10:11:49.743Z,1.4
2022-08-11T10:14:15.839Z,1.2
2022-08-11T10:16:41.939Z,1.4
2022-08-11T10:19:08.030Z,1.4
2022-08-11T10:21:34.130Z,1.5
2022-08-11T10:24:00.219Z,1.4
2022-08-11T10:26:26.306Z,1.6
2022-08-11T10:28:52.405Z,1
2022-08-11T10:31:18.503Z,0.9
2022-08-11T10:33:44.605Z,1.3
2022-08-11T10:36:10.688Z,1.2
2022-08-11T10:38:36.786Z,0.9
2022-08-11T10:41:02.883Z,1.4
2022-08-11T10:43:28.000Z,1
2022-08-11T10:45:54.092Z,1.3
2022-08-11T10:48:20.190Z,1.1
2022-08-11T10:50:46.293Z,1.3
2022-08-11T10:53:12.376Z,1.3
2022-08-11T10:58:04.585Z,1.4
2022-08-11T11:00:30.662Z,1.3
2022-08-11T11:02:55.794Z,1
2022-08-11T11:05:20.908Z,1.1
2022-08-11T11:07:47.005Z,1
2022-08-11T11:10:13.105Z,1.1
2022-08-11T11:12:39.194Z,1.2
2022-08-11T11:15:05.297Z,0.8
2022-08-11T11:17:31.394Z,0.9
2022-08-11T11:19:57.484Z,0.9
2022-08-11T11:22:23.583Z,1.1
2022-08-11T11:24:49.680Z,1.1
2022-08-11T11:27:15.775Z,1.4
2022-08-11T11:29:41.868Z,1.4
2022-08-11T11:32:07.966Z,1.2
2022-08-11T11:34:34.061Z,1.4
2022-08-11T11:36:59.165Z,1.3
2022-08-11T11:39:25.257Z,1.3
2022-08-11T11:41:51.349Z,1.1
2022-08-11T11:44:17.456Z,1.2
2022-08-11T11:46:43.537Z,1.2
2022-08-11T11:49:09.643Z,1.2
2022-08-11T11:51:35.737Z,1.4
2022-08-11T11:54:00.854Z,1.4
2022-08-11T11:56:25.958Z,1.2
2022-08-11T11:58:51.075Z,1.1
2022-08-11T12:01:16.204Z,1.3
2022-08-11T12:03:41.316Z,0.8
2022-08-11T12:06:06.442Z,1.4
2022-08-11T12:08:32.514Z,1.1
2022-08-11T12:10:58.624Z,1.1
2022-08-11T12:13:24.700Z,1.2
2022-08-11T12:15:50.800Z,1
2022-08-11T12:18:16.912Z,1.4
2022-08-11T12:20:42.999Z,1.2
2022-08-11T12:23:09.098Z,1.1
2022-08-11T12:25:35.185Z,1
2022-08-11T12:28:01.290Z,1.2
2022-08-11T12:30:27.380Z,1.3
2022-08-11T12:32:53.478Z,1.4
2022-08-11T12:35:19.569Z,1.2
2022-08-11T12:37:44.685Z,1.5
2022-08-11T12:40:10.797Z,1.2
2022-08-11T12:42:36.885Z,1.2
2022-08-11T12:45:02.977Z,1.2
2022-08-11T12:47:29.073Z,1.4
2022-08-11T12:49:55.188Z,1.2
2022-08-11T12:52:21.264Z,1.4
2022-08-11T12:54:46.374Z,1.3
2022-08-11T12:57:11.509Z,1.2
2022-08-11T12:59:36.629Z,1.2
2022-08-11T13:02:01.781Z,1.3
2022-08-11T13:04:27.824Z,1.3
2022-08-11T13:06:53.917Z,1.3
2022-08-11T13:09:20.024Z,1.1
2022-08-11T13:11:46.117Z,1.1
2022-08-11T13:14:12.204Z,1.2
2022-08-11T13:16:38.303Z,1.4
2022-08-11T13:19:04.400Z,1.2
2022-08-11T13:21:30.508Z,1.5
2022-08-11T13:23:56.660Z,1.3
2022-08-11T13:26:22.693Z,1.2
2022-08-11T13:28:48.782Z,1.2
2022-08-11T13:31:14.875Z,1.4
2022-08-11T13:33:39.987Z,1.3
2022-08-11T13:36:06.096Z,1.1
2022-08-11T13:38:32.193Z,1.3
2022-08-11T13:40:58.283Z,1.4
2022-08-11T13:43:24.376Z,1.1
2022-08-11T13:45:50.494Z,1.3
2022-08-11T13:48:16.582Z,1.1
2022-08-11T13:50:41.699Z,1.3
2022-08-11T13:53:06.801Z,1.2
2022-08-11T13:55:31.925Z,1.2
2022-08-11T13:57:57.053Z,1.2
2022-08-11T14:00:23.145Z,1.3
2022-08-11T14:02:48.273Z,1.4
2022-08-11T14:05:13.405Z,1.5
2022-08-11T14:07:39.465Z,1.2
2022-08-11T14:10:05.577Z,1.3
2022-08-11T14:12:31.669Z,1.3
2022-08-11T14:14:57.774Z,1.1
2022-08-11T14:17:23.851Z,1.2
2022-08-11T14:19:49.960Z,1
2022-08-11T14:22:16.061Z,1
2022-08-11T14:24:42.158Z,1.2
2022-08-11T14:27:08.247Z,1.3
2022-08-11T14:29:34.355Z,1.3
2022-08-11T14:32:00.437Z,1.2
2022-08-11T14:34:26.545Z,1.2
2022-08-11T14:36:51.647Z,1.4
2022-08-11T14:39:17.752Z,1.2
2022-08-11T14:41:57.137Z,1.2
2022-08-11T14:44:09.954Z,1.3
2022-08-11T14:46:36.036Z,1.2
2022-08-11T14:49:02.148Z,1.2
2022-08-11T14:51:28.236Z,1.3
2022-08-11T14:53:53.355Z,1.1
2022-08-11T14:56:18.478Z,1
2022-08-11T14:58:43.609Z,1.3
2022-08-11T15:01:08.712Z,1.2
2022-08-11T15:03:34.817Z,1.3
2022-08-11T15:08:27.023Z,1.1
2022-08-11T15:10:53.127Z,1.2
2022-08-11T15:13:19.207Z,1.2
2022-08-11T15:15:45.316Z,1
2022-08-11T15:18:11.399Z,1.3
2022-08-11T15:20:37.507Z,1.3
2022-08-11T15:23:03.621Z,1.4
2022-08-11T15:25:29.692Z,1.2
2022-08-11T15:27:55.782Z,1.1
2022-08-11T15:30:21.891Z,1.5
2022-08-11T15:32:47.016Z,1.2
2022-08-11T15:35:13.106Z,1.2
2022-08-11T15:37:39.199Z,1
2022-08-11T15:40:05.292Z,1.2
2022-08-11T15:42:31.388Z,1.1
2022-08-11T15:44:57.487Z,1.3
2022-08-11T15:47:23.585Z,1
2022-08-11T15:49:49.673Z,1
2022-08-11T15:52:14.804Z,1.3
2022-08-11T15:54:39.937Z,1
2022-08-11T15:57:05.059Z,1.1
2022-08-11T15:59:30.157Z,1.2
2022-08-11T16:01:56.264Z,1
2022-08-11T16:04:22.366Z,1.3
2022-08-11T16:06:48.445Z,1.2
2022-08-11T16:09:14.555Z,1.2
2022-08-11T16:11:40.654Z,1.1
2022-08-11T16:14:06.752Z,1.2
2022-08-11T16:16:32.840Z,1
2022-08-11T16:18:58.956Z,1.4
2022-08-11T16:21:25.038Z,1.2
2022-08-11T16:23:51.144Z,1.3
2022-08-11T16:26:17.650Z,1.2
2022-08-11T16:28:43.333Z,1.2
2022-08-11T16:31:08.453Z,1.2
2022-08-11T16:33:34.545Z,1.3
2022-08-11T16:36:00.650Z,1.3
2022-08-11T16:38:26.740Z,1.2
2022-08-11T16:40:52.839Z,1.2
2022-08-11T16:43:17.945Z,1.4
2022-08-11T16:45:44.061Z,1.3
2022-08-11T16:48:09.187Z,1
2022-08-11T16:50:34.300Z,1.1
2022-08-11T16:52:59.420Z,1.2
2022-08-11T16:55:24.531Z,1.2
2022-08-11T16:57:50.617Z,1.2
2022-08-11T17:00:16.728Z,1.1
2022-08-11T17:02:42.823Z,1.3
2022-08-11T17:05:08.923Z,1.1
2022-08-11T17:07:35.022Z,1.2
2022-08-11T17:10:01.118Z,1.1
2022-08-11T17:12:27.221Z,1.2
2022-08-11T17:14:53.316Z,1.2
2022-08-11T17:17:19.408Z,1.3
2022-08-11T17:19:45.489Z,1.2
2022-08-11T17:22:11.598Z,1
2022-08-11T17:24:37.694Z,1.4
2022-08-11T17:27:02.805Z,1.4
2022-08-11T17:29:28.902Z,1
2022-08-11T17:31:55.002Z,1.2
2022-08-11T17:34:21.107Z,1
2022-08-11T17:36:47.188Z,1.3
2022-08-11T17:39:13.282Z,1.5
2022-08-11T17:41:39.387Z,1.4
2022-08-11T17:44:04.520Z,1.6
2022-08-11T17:46:29.619Z,1.2
2022-08-11T17:48:55.723Z,1.3
2022-08-11T17:51:21.807Z,1.5
2022-08-11T17:53:47.913Z,1.4
2022-08-11T17:56:14.010Z,1.2
2022-08-11T17:58:40.103Z,0.9
2022-08-11T18:01:06.202Z,1.4
2022-08-11T18:03:32.293Z,0.9
2022-08-11T18:05:58.383Z,0.5
2022-08-11T18:08:24.478Z,1.3
2022-08-11T18:10:50.566Z,1
2022-08-11T18:13:16.676Z,0.9
2022-08-11T18:15:42.771Z,0.7
2022-08-11T18:18:07.871Z,0.3
2022-08-11T18:20:33.970Z,0.4
2022-08-11T18:23:00.085Z,0.7
2022-08-11T18:25:26.159Z,0.3
2022-08-11T18:27:52.249Z,0.7
2022-08-11T18:30:18.359Z,0.9
2022-08-11T18:32:44.455Z,0.5
2022-08-11T18:35:09.575Z,0.8
2022-08-11T18:37:34.945Z,0.4
2022-08-11T18:39:59.803Z,0.3
2022-08-11T18:42:24.916Z,0.6
2022-08-11T18:44:51.018Z,0.5
2022-08-11T18:47:16.135Z,0.5
2022-08-11T18:49:41.251Z,0.4
2022-08-11T18:52:07.347Z,0.7
2022-08-11T18:54:33.438Z,0.3
2022-08-11T18:56:59.530Z,0.8
2022-08-11T18:59:25.634Z,1.4
2022-08-11T19:01:51.717Z,0.8
2022-08-11T19:04:17.822Z,1
2022-08-11T19:06:43.945Z,1.4
2022-08-11T19:09:10.002Z,1.4
2022-08-11T19:11:36.102Z,1.6
2022-08-11T19:14:02.204Z,1.5
2022-08-11T19:16:33.181Z,1.4
2022-08-11T19:18:54.411Z,1.7
2022-08-11T19:21:19.519Z,1.4
2022-08-11T19:23:45.611Z,1.5
2022-08-11T19:26:11.691Z,1.6
2022-08-11T19:28:37.795Z,1.6
2022-08-11T19:31:03.902Z,1.2
2022-08-11T19:33:29.989Z,1.6
2022-08-11T19:35:56.091Z,1.3
2022-08-11T19:38:21.207Z,1.4
2022-08-11T19:40:46.322Z,1.4
2022-08-11T19:43:12.413Z,1.2
2022-08-11T19:45:37.517Z,1.6
2022-08-11T19:48:02.655Z,1.4
2022-08-11T19:50:28.731Z,1.3
2022-08-11T19:52:54.826Z,1.2
2022-08-11T19:55:20.923Z,1.3
2022-08-11T19:57:47.022Z,1.5
2022-08-11T20:05:05.299Z,1.4
2022-08-11T20:07:31.405Z,1.4
2022-08-11T20:09:57.497Z,1.5
2022-08-11T20:12:23.604Z,1.6
2022-08-11T20:14:49.690Z,1.3
2022-08-11T20:17:14.824Z,1.5
2022-08-11T20:19:39.909Z,1.2
2022-08-11T20:22:06.021Z,1.5
2022-08-11T20:24:32.115Z,1.3
2022-08-11T20:26:58.206Z,1.2
2022-08-11T20:29:24.293Z,1.5
2022-08-11T20:31:50.402Z,1.3
2022-08-11T20:34:16.511Z,1.2
2022-08-11T20:36:42.604Z,1.3
2022-08-11T20:39:08.677Z,1.6
2022-08-11T20:41:34.806Z,1.4
2022-08-11T20:43:59.910Z,3.7
2022-08-11T20:46:25.027Z,1.7
2022-08-11T20:48:51.102Z,1.4
2022-08-11T20:51:17.192Z,1.2
2022-08-11T20:53:43.348Z,1.7
2022-08-11T20:56:09.414Z,1.8
2022-08-11T20:58:35.489Z,1.4
2022-08-11T21:01:01.643Z,1.2
2022-08-11T21:03:27.688Z,1.8
2022-08-11T21:05:53.762Z,1.5
2022-08-11T21:08:19.864Z,1.6
2022-08-11T21:10:45.966Z,1.6
2022-08-11T21:13:12.069Z,1.4
2022-08-11T21:15:38.166Z,1.7
2022-08-11T21:18:03.286Z,1.4
2022-08-11T21:20:29.371Z,1.5
2022-08-11T21:22:55.462Z,1.6
2022-08-11T21:25:21.573Z,1.6
2022-08-11T21:27:47.646Z,1.3
2022-08-11T21:30:13.749Z,1.6
2022-08-11T21:32:39.849Z,1.6
2022-08-11T21:35:04.975Z,1.6
2022-08-11T21:37:30.095Z,1.6
2022-08-11T21:39:56.180Z,1.5
2022-08-11T21:42:22.268Z,1.5
2022-08-11T21:44:47.402Z,1.4
2022-08-11T21:47:12.496Z,1.7
2022-08-11T21:49:38.591Z,1.6
2022-08-11T21:52:04.687Z,1.5
2022-08-11T21:54:30.787Z,1.3
2022-08-11T21:56:56.880Z,1.5
2022-08-11T21:59:22.985Z,1.6
2022-08-11T22:01:49.069Z,1.5
2022-08-11T22:04:15.183Z,1.5
2022-08-11T22:06:41.261Z,1.6
2022-08-11T22:09:07.363Z,1.7
2022-08-11T22:11:33.472Z,1.3
2022-08-11T22:13:59.550Z,1.4
2022-08-11T22:16:25.659Z,1.6
2022-08-11T22:18:50.789Z,1.5
2022-08-11T22:21:16.853Z,1.6
2022-08-11T22:23:42.954Z,1.7
2022-08-11T22:26:09.052Z,1.6
2022-08-11T22:28:35.135Z,1.5
2022-08-11T22:31:01.242Z,1.5
2022-08-11T22:33:27.338Z,1.5
2022-08-11T22:35:52.452Z,1.5
2022-08-11T22:38:17.557Z,1.5
2022-08-11T22:40:42.682Z,1.6
2022-08-11T22:43:08.794Z,1.4
2022-08-11T22:45:33.892Z,1.5
2022-08-11T22:47:59.986Z,1.6
2022-08-11T22:50:26.098Z,1.5
2022-08-11T22:52:52.175Z,1.6
2022-08-11T22:55:18.276Z,1.6
2022-08-11T22:57:44.363Z,1.3
2022-08-11T23:00:10.478Z,1.3
2022-08-11T23:02:36.558Z,1.6
2022-08-11T23:05:02.664Z,1.5
2022-08-11T23:07:28.749Z,1.3
2022-08-11T23:09:54.852Z,1.5
2022-08-11T23:12:20.941Z,1.7
2022-08-11T23:14:47.057Z,1.5
2022-08-11T23:17:12.157Z,1.7
2022-08-11T23:19:38.240Z,1.3
2022-08-11T23:22:04.333Z,1.7
2022-08-11T23:24:30.438Z,1.7
2022-08-11T23:26:56.540Z,1.5
2022-08-11T23:29:22.623Z,1.8
2022-08-11T23:31:47.748Z,1.5
2022-08-11T23:34:12.863Z,1.6
2022-08-11T23:36:37.980Z,1.4
2022-08-11T23:39:03.099Z,1.6
2022-08-11T23:41:29.172Z,1.5
2022-08-11T23:43:55.277Z,1.5
2022-08-11T23:46:21.387Z,1.7
2022-08-11T23:48:47.466Z,1.4
2022-08-11T23:51:13.559Z,1.4
2022-08-11T23:53:39.662Z,1.4
2022-08-11T23:56:05.758Z,1.7
2022-08-11T23:58:31.854Z,1.7
